Terminal Aerodrome Forecast
Issued by NWS Lake Charles, LA

Home | Current Version | Previous Version | Text Only | Print | Product List | Glossary On
Versions: 1 2 3 4 5 6 7 8 9 10 11 12 13 14 15 16 17 18
000
FTUS44 KLCH 311700
TAFBPT
TAF
KBPT 311722Z 3118/0118 15008KT P6SM VCSH SCT040 BKN200
     FM010100 16006KT P6SM SCT030 BKN150
     FM011300 24007KT P6SM VCSH BKN040 PROB30 0114/0118 5SM -SHRA=

USA.gov is the U.S. government's official web portal to all federal, state and local government web resources and services.